Time;durP1;ratioP1;P1;durP2;ratioP2;P2;SDS_P1;SDS_P2;PMS_P1;PMS_P2;Temp;Humidity;BMP_temperature;BMP_pressure;BME280_temperature;BME280_humidity;BME280_pressure;Samples;Min_cycle;Max_cycle;Signal;HPM_P1;HPM_P2
2022/09/07 00:00:14;;;;;;;12.68;10.40;;;20.40;99.90;;;;;;5009633;28;20450;-42
2022/09/07 00:02:40;;;;;;;13.13;11.43;;;20.40;99.90;;;;;;5008141;28;20065;-40
2022/09/07 00:05:06;;;;;;;18.20;12.20;;;20.30;99.90;;;;;;5009288;28;20840;-41
2022/09/07 00:07:32;;;;;;;18.33;13.00;;;20.20;99.90;;;;;;5008717;28;20037;-38
2022/09/07 00:09:58;;;;;;;17.42;14.00;;;20.10;99.90;;;;;;5006472;28;20049;-43
2022/09/07 00:12:24;;;;;;;17.17;13.95;;;20.10;99.90;;;;;;5008022;28;20048;-39
2022/09/07 00:14:49;;;;;;;18.50;13.15;;;20.00;99.90;;;;;;5006930;28;20123;-42
2022/09/07 00:17:15;;;;;;;20.73;14.77;;;20.00;99.90;;;;;;5009821;28;20049;-42
2022/09/07 00:19:44;;;;;;;19.02;15.63;;;19.90;99.90;;;;;;5006803;28;20084;-42
2022/09/07 00:22:09;;;;;;;21.70;16.70;;;19.80;99.90;;;;;;5002825;28;20487;-39
2022/09/07 00:24:35;;;;;;;23.63;17.10;;;19.80;99.90;;;;;;5007721;28;20077;-39
2022/09/07 00:27:01;;;;;;;23.98;16.02;;;19.70;99.90;;;;;;5007414;28;20053;-41
2022/09/07 00:29:26;;;;;;;22.45;15.88;;;19.60;99.90;;;;;;5003489;28;20093;-38
2022/09/07 00:31:52;;;;;;;24.67;16.80;;;19.50;99.90;;;;;;5007701;28;20037;-42
2022/09/07 00:34:17;;;;;;;18.45;13.77;;;19.40;99.90;;;;;;5004082;28;20510;-44
2022/09/07 00:36:43;;;;;;;26.27;16.35;;;19.40;99.90;;;;;;5007640;28;20061;-43
2022/09/07 00:39:09;;;;;;;19.20;13.57;;;19.50;99.90;;;;;;5005376;28;20084;-42
2022/09/07 00:41:34;;;;;;;16.63;11.93;;;19.50;99.90;;;;;;5005521;28;20052;-38
2022/09/07 00:44:37;;;;;;;13.15;7.70;;;19.40;99.90;;;;;;5005051;28;20041;-42
2022/09/07 00:47:07;;;;;;;7.28;3.60;;;19.20;99.90;;;;;;5003862;28;20045;-39
2022/09/07 00:49:34;;;;;;;5.57;1.30;;;19.10;99.90;;;;;;5023472;28;20108;-45
2022/09/07 00:52:03;;;;;;;4.47;1.13;;;19.00;99.90;;;;;;5008535;28;20044;-41
2022/09/07 00:54:37;;;;;;;3.78;1.10;;;18.80;99.90;;;;;;5003669;28;20042;-41
2022/09/07 00:57:03;;;;;;;3.50;1.10;;;18.70;99.90;;;;;;5006309;28;20041;-42
2022/09/07 00:59:42;;;;;;;5.18;0.93;;;18.60;99.90;;;;;;5005843;28;20052;-42
2022/09/07 01:02:10;;;;;;;2.83;0.47;;;18.50;99.90;;;;;;5007109;28;20038;-40
2022/09/07 01:04:37;;;;;;;2.85;0.77;;;18.40;99.90;;;;;;5002744;28;20495;-42
2022/09/07 01:07:04;;;;;;;2.40;0.50;;;18.40;99.90;;;;;;5007419;28;20038;-43
2022/09/07 01:09:30;;;;;;;1.40;0.40;;;18.30;99.90;;;;;;5004697;28;20041;-42
2022/09/07 01:12:03;;;;;;;1.50;0.43;;;18.30;99.90;;;;;;5000958;28;20064;-42
2022/09/07 01:14:36;;;;;;;3.25;0.68;;;18.30;99.90;;;;;;5005418;28;20483;-38
2022/09/07 01:17:17;;;;;;;1.15;0.32;;;18.20;99.90;;;;;;5007563;28;20042;-40
2022/09/07 01:19:46;;;;;;;1.38;0.40;;;18.20;99.90;;;;;;5006668;28;20129;-41
2022/09/07 01:22:35;;;;;;;0.68;0.30;;;18.10;99.90;;;;;;5004113;28;20041;-38
2022/09/07 01:25:29;;;;;;;1.33;0.40;;;18.00;99.90;;;;;;5002999;28;20038;-40
2022/09/07 01:28:14;;;;;;;0.90;0.40;;;18.00;99.90;;;;;;5002946;28;20033;-39
2022/09/07 01:30:54;;;;;;;1.27;0.40;;;17.90;99.90;;;;;;5002518;28;20073;-43
2022/09/07 01:33:37;;;;;;;0.85;0.40;;;18.00;99.90;;;;;;5006064;28;20370;-43
2022/09/07 01:36:25;;;;;;;1.10;0.30;;;18.00;99.90;;;;;;5006030;28;20088;-39
2022/09/07 01:38:57;;;;;;;0.32;0.20;;;18.00;99.90;;;;;;5004666;28;20499;-41
2022/09/07 01:41:37;;;;;;;1.00;0.40;;;17.90;99.90;;;;;;5005564;28;20133;-41
2022/09/07 01:44:21;;;;;;;0.88;0.30;;;17.90;99.90;;;;;;4999588;28;20057;-40
2022/09/07 01:47:02;;;;;;;2.25;0.40;;;17.90;99.90;;;;;;5005840;28;20084;-40
2022/09/07 01:49:36;;;;;;;1.15;0.40;;;18.00;99.90;;;;;;5007839;28;20077;-42
2022/09/07 01:52:08;;;;;;;1.35;0.40;;;18.00;99.90;;;;;;5005484;28;20069;-40
2022/09/07 01:54:43;;;;;;;1.77;0.45;;;18.00;99.90;;;;;;5007534;28;20042;-48
2022/09/07 01:57:17;;;;;;;2.00;0.73;;;18.00;99.90;;;;;;5004080;28;20527;-43
2022/09/07 01:59:52;;;;;;;1.90;0.50;;;18.00;99.90;;;;;;5003549;28;20038;-40
2022/09/07 02:02:22;;;;;;;2.58;0.60;;;18.00;99.90;;;;;;5003612;28;20073;-45
2022/09/07 02:04:57;;;;;;;3.85;0.60;;;17.90;99.90;;;;;;5005849;28;20053;-44
2022/09/07 02:07:44;;;;;;;2.78;0.60;;;18.00;99.90;;;;;;5005117;28;20121;-43
2022/09/07 02:10:15;;;;;;;3.05;0.90;;;18.00;99.90;;;;;;5004173;28;20041;-43
2022/09/07 02:12:58;;;;;;;1.50;0.50;;;18.00;99.90;;;;;;5001047;28;20491;-42
2022/09/07 02:15:36;;;;;;;2.97;0.52;;;18.00;99.90;;;;;;4998767;28;20491;-42
2022/09/07 02:18:05;;;;;;;2.20;0.55;;;18.10;99.90;;;;;;5005166;28;20073;-47
2022/09/07 02:20:38;;;;;;;2.08;0.60;;;18.10;99.90;;;;;;5001282;28;20045;-43
2022/09/07 02:23:19;;;;;;;4.53;0.68;;;18.10;99.90;;;;;;5005252;28;20061;-38
2022/09/07 02:25:51;;;;;;;3.60;1.02;;;18.10;99.90;;;;;;4999341;28;20096;-42
2022/09/07 02:28:22;;;;;;;3.95;1.30;;;18.10;99.90;;;;;;5006242;28;20491;-40
2022/09/07 02:30:48;;;;;;;3.25;1.02;;;18.10;99.90;;;;;;5001458;28;20042;-40
2022/09/07 02:33:13;;;;;;;2.78;1.10;;;18.10;99.90;;;;;;5007855;28;20049;-39
2022/09/07 02:35:39;;;;;;;4.13;1.20;;;18.10;99.90;;;;;;5003752;28;20041;-41
2022/09/07 02:38:06;;;;;;;2.70;1.02;;;18.10;99.90;;;;;;5006972;28;20121;-38
2022/09/07 02:40:33;;;;;;;5.07;1.27;;;18.10;99.90;;;;;;5007808;28;20418;-40
2022/09/07 02:43:01;;;;;;;3.00;1.33;;;18.10;99.90;;;;;;5005076;28;20046;-39
2022/09/07 02:45:38;;;;;;;3.55;1.15;;;18.10;99.90;;;;;;5002569;28;20038;-38
2022/09/07 02:48:14;;;;;;;3.17;1.60;;;18.10;99.90;;;;;;5001461;28;20054;-39
2022/09/07 02:50:45;;;;;;;3.33;1.50;;;18.10;99.90;;;;;;5002112;28;20690;-39
2022/09/07 02:53:51;;;;;;;3.00;0.98;;;18.20;99.90;;;;;;5005851;28;20038;-39
2022/09/07 02:56:28;;;;;;;2.08;0.93;;;18.20;99.90;;;;;;4985751;28;20095;-39
2022/09/07 02:59:15;;;;;;;4.38;1.20;;;18.10;99.90;;;;;;5003468;28;20097;-38
2022/09/07 03:02:09;;;;;;;2.65;1.40;;;18.20;99.90;;;;;;5006025;28;20084;-43
2022/09/07 03:05:03;;;;;;;3.15;0.77;;;18.10;99.90;;;;;;5000869;28;20034;-39
2022/09/07 03:07:34;;;;;;;1.60;0.90;;;18.20;99.90;;;;;;5011199;28;20441;-39
2022/09/07 03:10:03;;;;;;;1.73;1.00;;;18.10;99.90;;;;;;5011797;28;20046;-39
2022/09/07 03:12:46;;;;;;;4.35;1.45;;;18.10;99.90;;;;;;5007676;28;20558;-39
2022/09/07 03:15:19;;;;;;;2.70;1.20;;;18.10;99.90;;;;;;5003350;28;20034;-46
2022/09/07 03:17:45;;;;;;;2.70;1.25;;;18.10;99.90;;;;;;5006333;28;20046;-38
2022/09/07 03:20:11;;;;;;;2.50;1.00;;;18.00;99.90;;;;;;5008220;28;20165;-38
2022/09/07 03:22:37;;;;;;;3.33;1.15;;;18.10;99.90;;;;;;5009085;28;20053;-37
2022/09/07 03:25:03;;;;;;;2.35;1.40;;;18.00;99.90;;;;;;5006135;28;20403;-39
2022/09/07 03:27:31;;;;;;;2.65;1.05;;;18.00;99.90;;;;;;5010154;28;20125;-38
2022/09/07 03:29:57;;;;;;;3.20;1.60;;;18.00;99.90;;;;;;5007244;28;20034;-38
2022/09/07 03:32:23;;;;;;;4.22;1.52;;;18.00;99.90;;;;;;5008356;28;20089;-38
2022/09/07 03:34:50;;;;;;;2.75;1.40;;;18.00;99.90;;;;;;5006399;28;20077;-39
2022/09/07 03:37:16;;;;;;;1.95;1.42;;;18.00;99.90;;;;;;5008836;28;20514;-40
2022/09/07 03:39:42;;;;;;;2.78;1.58;;;18.00;99.90;;;;;;5010468;28;20042;-39
2022/09/07 03:42:07;;;;;;;3.28;1.67;;;17.90;99.90;;;;;;5009185;28;20496;-39
2022/09/07 03:44:33;;;;;;;3.00;1.65;;;17.90;99.90;;;;;;5008807;28;20434;-39
2022/09/07 03:46:59;;;;;;;4.53;1.20;;;17.90;99.90;;;;;;5007667;28;20045;-38
2022/09/07 03:49:24;;;;;;;3.03;1.50;;;17.90;99.90;;;;;;5006008;28;20049;-39
2022/09/07 03:51:50;;;;;;;2.53;1.10;;;17.90;99.90;;;;;;5003148;28;20036;-39
2022/09/07 03:54:15;;;;;;;3.80;2.05;;;17.90;99.90;;;;;;5007179;28;20033;-40
2022/09/07 03:56:41;;;;;;;6.13;2.00;;;17.90;99.90;;;;;;5010457;28;20491;-39
2022/09/07 03:59:07;;;;;;;7.72;1.50;;;17.90;99.90;;;;;;5003038;28;20080;-38
2022/09/07 04:01:32;;;;;;;2.75;1.92;;;17.90;99.90;;;;;;5007343;28;20033;-38
2022/09/07 04:04:01;;;;;;;3.83;2.05;;;17.90;99.90;;;;;;5007373;28;20037;-38
2022/09/07 04:06:28;;;;;;;3.65;2.00;;;17.80;99.90;;;;;;5008220;28;20116;-38
2022/09/07 04:08:55;;;;;;;3.92;1.83;;;17.80;99.90;;;;;;5004479;28;20180;-38
2022/09/07 04:11:21;;;;;;;5.30;2.13;;;17.70;99.90;;;;;;5008115;28;20056;-38
2022/09/07 04:13:47;;;;;;;3.78;2.30;;;17.60;99.90;;;;;;5007793;28;20550;-40
2022/09/07 04:16:19;;;;;;;3.88;2.03;;;17.60;99.90;;;;;;5008190;28;20129;-38
2022/09/07 04:18:45;;;;;;;3.78;1.80;;;17.60;99.90;;;;;;5009695;28;20079;-38
2022/09/07 04:21:12;;;;;;;2.58;2.00;;;17.60;99.90;;;;;;5004671;28;20088;-38
2022/09/07 04:23:39;;;;;;;4.90;2.40;;;17.60;99.90;;;;;;5008390;28;20040;-38
2022/09/07 04:26:05;;;;;;;3.40;2.13;;;17.60;99.90;;;;;;5008080;28;20503;-38
2022/09/07 04:28:31;;;;;;;3.15;2.10;;;17.70;99.90;;;;;;5004468;28;20034;-38
2022/09/07 04:31:03;;;;;;;3.80;1.90;;;17.70;99.90;;;;;;5007358;28;20048;-38
2022/09/07 04:33:32;;;;;;;2.47;1.52;;;17.70;99.90;;;;;;5004448;28;20056;-39
2022/09/07 04:35:59;;;;;;;2.80;1.70;;;17.70;99.90;;;;;;5006177;28;20120;-39
2022/09/07 04:38:25;;;;;;;4.20;1.52;;;17.80;99.90;;;;;;5007638;28;20041;-40
2022/09/07 04:40:59;;;;;;;3.67;2.00;;;17.80;99.90;;;;;;5006916;28;20060;-38
2022/09/07 04:43:25;;;;;;;4.18;2.30;;;17.80;99.90;;;;;;5001037;28;20077;-39
2022/09/07 04:45:50;;;;;;;3.72;2.17;;;17.80;99.90;;;;;;5004190;28;20029;-37
2022/09/07 04:48:16;;;;;;;3.30;2.00;;;17.90;99.90;;;;;;5006522;28;20104;-37
2022/09/07 04:50:42;;;;;;;3.65;2.40;;;17.90;99.90;;;;;;5006170;28;20043;-38
2022/09/07 04:53:07;;;;;;;5.93;2.60;;;18.00;99.90;;;;;;4996815;28;20038;-39
2022/09/07 04:55:33;;;;;;;3.97;2.45;;;18.00;99.90;;;;;;5004363;28;20046;-38
2022/09/07 04:57:58;;;;;;;3.47;2.17;;;18.00;99.90;;;;;;5003456;28;20049;-38
2022/09/07 05:00:24;;;;;;;3.10;2.00;;;18.10;99.90;;;;;;5005756;28;20177;-38
2022/09/07 05:02:50;;;;;;;4.72;2.63;;;18.10;99.90;;;;;;5002604;28;20084;-39
2022/09/07 05:05:15;;;;;;;2.92;2.38;;;18.10;99.90;;;;;;5007700;28;20534;-39
2022/09/07 05:07:41;;;;;;;5.68;2.45;;;18.10;99.90;;;;;;5002785;28;20120;-37
2022/09/07 05:10:07;;;;;;;3.90;2.28;;;18.20;99.90;;;;;;5004913;28;20038;-38
2022/09/07 05:12:33;;;;;;;3.67;2.42;;;18.20;99.90;;;;;;5005831;28;20072;-39
2022/09/07 05:14:59;;;;;;;5.28;3.67;;;18.20;99.90;;;;;;5006813;28;20046;-38
2022/09/07 05:17:24;;;;;;;6.90;4.43;;;18.30;99.90;;;;;;5007850;28;20354;-37
2022/09/07 05:19:50;;;;;;;5.38;4.15;;;18.30;99.90;;;;;;5003685;28;20038;-39
2022/09/07 05:22:16;;;;;;;6.72;4.90;;;18.30;99.90;;;;;;5005243;28;20100;-38
2022/09/07 05:24:42;;;;;;;5.13;4.03;;;18.30;99.90;;;;;;4998733;28;20542;-38
2022/09/07 05:27:07;;;;;;;5.57;4.55;;;18.30;99.90;;;;;;5001240;28;20046;-38
2022/09/07 05:29:33;;;;;;;8.45;7.05;;;18.40;99.90;;;;;;5004969;28;20470;-38
2022/09/07 05:31:59;;;;;;;9.68;7.03;;;18.40;99.90;;;;;;5007626;28;20045;-46
2022/09/07 05:34:24;;;;;;;8.43;7.15;;;18.30;99.90;;;;;;5004969;28;20564;-38
2022/09/07 05:36:50;;;;;;;6.88;6.13;;;18.30;99.90;;;;;;5007149;28;20041;-39
2022/09/07 05:39:17;;;;;;;11.93;7.88;;;18.30;99.90;;;;;;5007954;28;20423;-38
2022/09/07 05:41:42;;;;;;;10.18;7.22;;;18.30;99.90;;;;;;5003854;28;20061;-38
2022/09/07 05:44:08;;;;;;;7.65;5.78;;;18.30;99.90;;;;;;5000012;28;20437;-39
2022/09/07 05:46:33;;;;;;;10.70;7.70;;;18.30;99.90;;;;;;5002163;28;20444;-37
2022/09/07 05:49:00;;;;;;;8.60;5.88;;;18.30;99.90;;;;;;5000040;28;20446;-38
2022/09/07 05:51:25;;;;;;;13.85;8.57;;;18.30;99.90;;;;;;5002639;28;20386;-38
2022/09/07 05:53:51;;;;;;;11.40;8.70;;;18.30;99.90;;;;;;5000100;28;20513;-38
2022/09/07 05:56:17;;;;;;;10.75;9.07;;;18.40;99.90;;;;;;5003865;28;20037;-40
2022/09/07 05:58:47;;;;;;;15.55;11.07;;;18.40;99.90;;;;;;5005640;28;20030;-38
2022/09/07 06:01:13;;;;;;;14.13;10.50;;;18.30;99.90;;;;;;5002703;28;20128;-38
2022/09/07 06:03:40;;;;;;;12.07;9.55;;;18.40;99.90;;;;;;5005245;28;20152;-37
2022/09/07 06:06:08;;;;;;;13.95;10.32;;;18.40;99.90;;;;;;5007826;28;20030;-37
2022/09/07 06:08:36;;;;;;;12.40;9.32;;;18.50;99.90;;;;;;5005600;28;20045;-37
2022/09/07 06:11:10;;;;;;;12.65;9.93;;;18.60;99.90;;;;;;5002811;28;20290;-37
2022/09/07 06:13:35;;;;;;;12.25;9.82;;;18.70;99.90;;;;;;5004773;28;20040;-36
2022/09/07 06:16:03;;;;;;;14.35;9.10;;;18.80;99.90;;;;;;5004662;28;20100;-38
2022/09/07 06:18:37;;;;;;;14.50;12.40;;;18.80;99.90;;;;;;5004061;28;20050;-36
2022/09/07 06:21:08;;;;;;;14.80;12.20;;;18.90;99.90;;;;;;5006043;28;20046;-37
2022/09/07 06:23:35;;;;;;;14.77;11.77;;;18.90;99.90;;;;;;5006913;28;20038;-38
2022/09/07 06:26:01;;;;;;;13.35;10.80;;;19.00;99.90;;;;;;5004370;28;20598;-37
2022/09/07 06:28:29;;;;;;;13.98;11.20;;;19.00;99.90;;;;;;5005117;28;20092;-38
2022/09/07 06:31:07;;;;;;;13.52;10.77;;;19.00;99.90;;;;;;5007658;28;20051;-37
2022/09/07 06:33:34;;;;;;;13.65;10.43;;;19.00;99.90;;;;;;5000626;28;20042;-35
2022/09/07 06:36:20;;;;;;;14.45;10.50;;;18.90;99.90;;;;;;5002330;28;20053;-35
2022/09/07 06:38:47;;;;;;;13.85;10.18;;;18.90;99.90;;;;;;5006274;28;20046;-35
2022/09/07 06:41:14;;;;;;;12.13;8.98;;;18.90;99.90;;;;;;5009290;28;20042;-39
2022/09/07 06:43:40;;;;;;;11.15;8.48;;;18.90;99.90;;;;;;5006670;28;20077;-39
2022/09/07 06:46:06;;;;;;;10.30;8.27;;;18.90;99.90;;;;;;5006328;28;20112;-39
2022/09/07 06:48:32;;;;;;;9.75;7.35;;;18.90;99.90;;;;;;5008455;28;20050;-34
2022/09/07 06:51:04;;;;;;;10.95;7.97;;;18.90;99.90;;;;;;5004777;28;20049;-34
2022/09/07 06:53:32;;;;;;;11.20;7.40;;;18.90;99.90;;;;;;5007265;28;20824;-36
2022/09/07 07:03:45;;;;;;;10.45;6.72;;;18.90;99.90;;;;;;3816323;23;20401;-82
2022/09/07 07:06:13;;;;;;;9.15;6.95;;;19.00;99.90;;;;;;4988629;28;20430;-86
2022/09/07 07:08:39;;;;;;;8.32;6.20;;;19.00;99.90;;;;;;4979791;28;20085;-86
2022/09/07 07:11:13;;;;;;;7.10;5.38;;;19.10;99.90;;;;;;5028897;23;20422;-39
2022/09/07 07:13:40;;;;;;;8.30;6.22;;;19.10;99.90;;;;;;5006214;28;20510;-37
2022/09/07 07:16:15;;;;;;;7.57;5.03;;;19.20;99.90;;;;;;5006876;28;20062;-37
2022/09/07 07:18:41;;;;;;;6.85;4.95;;;19.30;99.90;;;;;;4990004;28;20058;-38
2022/09/07 07:21:10;;;;;;;6.53;4.90;;;19.30;99.90;;;;;;5004240;28;20126;-38
2022/09/07 07:23:36;;;;;;;7.10;5.40;;;19.30;99.90;;;;;;5002497;28;20108;-38
2022/09/07 07:26:08;;;;;;;6.47;4.00;;;19.30;99.90;;;;;;5006104;28;20030;-38
2022/09/07 07:28:34;;;;;;;;;;;19.30;99.90;;;;;;5001247;28;20038;-37
2022/09/07 07:31:02;;;;;;;8.35;5.05;;;19.40;99.90;;;;;;5005129;28;19952;-38
2022/09/07 07:34:12;;;;;;;9.18;5.78;;;19.50;99.90;;;;;;5005955;28;20503;-38
2022/09/07 07:36:38;;;;;;;8.52;5.90;;;19.60;99.90;;;;;;5003550;28;20495;-37
2022/09/07 07:39:04;;;;;;;10.43;7.25;;;19.50;99.90;;;;;;5003797;28;20042;-38
2022/09/07 07:41:30;;;;;;;8.18;5.50;;;19.50;99.90;;;;;;5008375;28;20034;-37
2022/09/07 07:43:58;;;;;;;8.90;4.78;;;19.50;99.90;;;;;;5005831;28;20038;-38
2022/09/07 07:46:25;;;;;;;6.60;4.45;;;19.70;99.90;;;;;;5007271;28;20042;-38
2022/09/07 07:48:52;;;;;;;9.48;5.75;;;19.90;99.90;;;;;;5006910;28;20431;-38
2022/09/07 07:51:18;;;;;;;7.80;4.05;;;20.10;99.90;;;;;;5009378;28;20160;-40
2022/09/07 07:53:44;;;;;;;4.38;3.28;;;20.10;99.90;;;;;;4984547;28;20038;-38
2022/09/07 07:56:11;;;;;;;7.53;5.55;;;20.20;99.90;;;;;;5009238;28;20042;-37
2022/09/07 07:58:37;;;;;;;4.22;2.90;;;20.30;99.90;;;;;;5007052;28;20053;-37
2022/09/07 08:01:11;;;;;;;4.45;2.92;;;20.40;99.90;;;;;;5001304;28;20038;-38
2022/09/07 08:03:39;;;;;;;5.38;3.03;;;20.40;99.90;;;;;;5004571;28;20026;-38
2022/09/07 08:06:14;;;;;;;10.18;5.97;;;20.60;99.90;;;;;;4987234;28;20044;-39
2022/09/07 08:08:41;;;;;;;8.40;6.45;;;20.70;99.90;;;;;;5008091;28;20084;-39
2022/09/07 08:11:09;;;;;;;6.30;4.55;;;20.70;99.90;;;;;;5007016;28;20180;-37
2022/09/07 08:13:37;;;;;;;9.25;5.85;;;20.70;99.90;;;;;;5008652;28;20080;-38
2022/09/07 08:16:04;;;;;;;6.50;4.53;;;20.70;99.90;;;;;;5005329;28;20050;-37
2022/09/07 08:18:31;;;;;;;7.97;4.65;;;20.60;99.90;;;;;;5005036;28;20495;-36
2022/09/07 08:21:02;;;;;;;10.77;7.13;;;20.60;99.90;;;;;;5008680;28;20029;-38
2022/09/07 08:23:30;;;;;;;7.00;4.22;;;20.60;99.90;;;;;;5005143;28;20042;-38
2022/09/07 08:26:00;;;;;;;6.90;5.20;;;20.60;99.90;;;;;;5004783;28;20183;-38
2022/09/07 08:28:28;;;;;;;8.32;5.68;;;20.70;99.90;;;;;;4998195;28;20501;-38
2022/09/07 08:30:55;;;;;;;7.53;5.85;;;20.80;99.90;;;;;;5003336;28;20037;-38
2022/09/07 08:33:20;;;;;;;8.63;6.30;;;20.80;99.90;;;;;;5006701;28;20045;-37
2022/09/07 08:36:03;;;;;;;5.88;4.28;;;20.90;99.90;;;;;;5009776;28;20115;-39
2022/09/07 08:38:31;;;;;;;7.13;4.80;;;20.90;99.90;;;;;;5008163;28;20034;-38
2022/09/07 08:40:57;;;;;;;9.20;5.20;;;20.90;99.90;;;;;;5009386;28;20080;-38
2022/09/07 08:43:48;;;;;;;8.02;5.18;;;20.90;99.90;;;;;;4989468;28;20033;-38
2022/09/07 08:46:43;;;;;;;4.40;2.63;;;20.90;99.90;;;;;;5008168;28;20470;-39
2022/09/07 08:49:39;;;;;;;6.35;4.60;;;21.00;99.90;;;;;;5003910;28;20494;-39
2022/09/07 08:52:19;;;;;;;6.72;4.38;;;20.90;99.90;;;;;;5006480;28;20049;-37
2022/09/07 08:55:10;;;;;;;5.53;2.78;;;21.00;99.90;;;;;;4986501;28;20038;-38
2022/09/07 08:57:42;;;;;;;7.90;3.40;;;20.90;99.90;;;;;;5005809;28;20046;-38
2022/09/07 09:00:21;;;;;;;5.00;3.45;;;20.90;99.90;;;;;;5001589;28;20418;-38
2022/09/07 09:02:47;;;;;;;7.78;5.10;;;21.00;99.90;;;;;;5000798;28;20037;-38
2022/09/07 09:05:30;;;;;;;7.25;4.20;;;21.00;99.90;;;;;;5007624;28;20041;-38
2022/09/07 09:08:11;;;;;;;5.95;4.18;;;21.10;99.90;;;;;;5008453;28;20041;-38
2022/09/07 09:10:36;;;;;;;5.47;3.78;;;21.20;99.90;;;;;;5006498;28;20116;-38
2022/09/07 09:13:21;;;;;;;7.13;4.25;;;21.20;99.90;;;;;;5004715;28;20042;-39
2022/09/07 09:15:58;;;;;;;6.57;3.85;;;21.30;99.90;;;;;;5011659;28;20037;-42
2022/09/07 09:18:33;;;;;;;4.10;3.28;;;21.30;99.90;;;;;;4983566;28;20084;-39
2022/09/07 09:21:00;;;;;;;8.20;3.58;;;21.30;99.90;;;;;;5004987;28;20064;-39
2022/09/07 09:23:32;;;;;;;5.20;2.70;;;21.30;99.90;;;;;;5002677;28;20173;-39
2022/09/07 09:26:06;;;;;;;4.03;2.60;;;21.30;99.90;;;;;;5002547;28;20038;-38
2022/09/07 09:28:31;;;;;;;4.70;2.83;;;21.20;99.90;;;;;;5005021;28;20038;-38
2022/09/07 09:30:57;;;;;;;7.38;3.72;;;21.20;99.90;;;;;;5004179;28;20057;-36
2022/09/07 09:33:26;;;;;;;5.43;4.10;;;21.30;99.90;;;;;;5003999;28;20670;-36
2022/09/07 09:35:58;;;;;;;3.53;2.38;;;21.30;99.90;;;;;;5004756;28;20033;-38
2022/09/07 09:38:30;;;;;;;6.78;3.22;;;21.40;99.90;;;;;;4999874;28;20084;-39
2022/09/07 09:40:59;;;;;;;4.15;3.17;;;21.50;99.90;;;;;;5006465;28;20038;-38
2022/09/07 09:43:31;;;;;;;5.72;2.85;;;21.60;99.90;;;;;;5006093;28;20038;-38
2022/09/07 09:45:58;;;;;;;4.50;2.78;;;21.60;99.90;;;;;;4990972;28;20117;-37
2022/09/07 09:48:38;;;;;;;4.43;2.00;;;21.50;99.90;;;;;;5003398;28;20099;-38
2022/09/07 09:51:06;;;;;;;4.80;2.50;;;21.50;99.90;;;;;;5004339;28;20034;-39
2022/09/07 09:53:37;;;;;;;3.85;2.53;;;21.50;99.90;;;;;;5005482;28;20050;-37
2022/09/07 09:56:03;;;;;;;4.63;3.33;;;21.70;99.90;;;;;;5005243;28;20059;-40
2022/09/07 09:58:32;;;;;;;4.35;2.67;;;21.90;99.90;;;;;;5005931;28;20080;-38
2022/09/07 10:01:04;;;;;;;4.78;1.67;;;22.00;99.90;;;;;;4988915;28;20103;-39
2022/09/07 10:03:31;;;;;;;3.57;1.77;;;22.20;99.90;;;;;;5004168;28;20045;-40
2022/09/07 10:05:58;;;;;;;4.18;2.80;;;22.30;99.90;;;;;;5002456;28;20775;-38
2022/09/07 10:08:30;;;;;;;2.25;1.23;;;22.40;99.90;;;;;;5004469;28;20038;-38
2022/09/07 10:11:03;;;;;;;2.33;1.43;;;22.40;99.90;;;;;;4969691;28;1070877;-37
2022/09/07 10:13:36;;;;;;;2.42;1.63;;;22.40;99.90;;;;;;5003335;28;20509;-38
2022/09/07 10:16:05;;;;;;;3.80;1.60;;;22.40;99.90;;;;;;5009969;28;20037;-40
2022/09/07 10:18:40;;;;;;;4.78;2.33;;;22.40;99.90;;;;;;5009193;28;20038;-37
2022/09/07 10:21:25;;;;;;;4.07;2.00;;;22.50;99.80;;;;;;5013300;28;20483;-38
2022/09/07 10:24:13;;;;;;;1.77;0.98;;;22.60;98.90;;;;;;4993051;28;20050;-37
2022/09/07 10:26:40;;;;;;;3.47;1.95;;;22.70;98.60;;;;;;5003078;28;20057;-38
2022/09/07 10:29:23;;;;;;;4.55;1.75;;;22.90;98.90;;;;;;5005614;28;20041;-38
2022/09/07 10:31:57;;;;;;;;;;;23.00;98.30;;;;;;5009424;28;20491;-38
2022/09/07 10:35:17;;;;;;;3.15;2.03;;;23.00;96.80;;;;;;4992649;28;19953;-39
2022/09/07 10:37:51;;;;;;;2.53;1.35;;;23.00;97.10;;;;;;4938923;28;20057;-38
2022/09/07 10:40:34;;;;;;;4.22;1.80;;;23.00;98.20;;;;;;4999295;28;20060;-37
2022/09/07 10:43:04;;;;;;;;;;;23.00;97.70;;;;;;5009250;28;20034;-38
2022/09/07 10:45:57;;;;;;;2.65;1.15;;;23.00;95.80;;;;;;5007533;28;20013;-39
2022/09/07 10:48:28;;;;;;;2.65;2.00;;;23.10;96.10;;;;;;5004054;28;20045;-38
2022/09/07 10:50:58;;;;;;;4.78;2.53;;;23.10;97.40;;;;;;5007705;28;20048;-38
2022/09/07 10:53:33;;;;;;;3.58;2.17;;;23.20;97.30;;;;;;4990166;28;20065;-37
2022/09/07 10:56:04;;;;;;;3.67;1.88;;;23.20;96.60;;;;;;5010539;28;20034;-37
2022/09/07 10:58:30;;;;;;;4.50;2.13;;;23.20;96.70;;;;;;5005227;28;20041;-37
2022/09/07 11:01:21;;;;;;;3.35;1.45;;;23.20;97.00;;;;;;5006449;28;20038;-38
2022/09/07 11:04:03;;;;;;;4.15;2.50;;;23.30;95.30;;;;;;4990298;28;20428;-38
2022/09/07 11:06:39;;;;;;;4.07;1.50;;;23.40;96.10;;;;;;5010729;28;20037;-38
2022/09/07 11:09:33;;;;;;;1.95;1.20;;;23.60;95.10;;;;;;5003142;28;20042;-36
2022/09/07 11:12:17;;;;;;;2.40;1.80;;;23.90;94.90;;;;;;5007106;28;20050;-36
2022/09/07 11:15:06;;;;;;;2.53;1.70;;;24.20;95.30;;;;;;4990241;28;20033;-36
2022/09/07 11:17:54;;;;;;;5.07;2.20;;;24.30;95.10;;;;;;5007060;28;20046;-37
2022/09/07 11:20:34;;;;;;;2.05;1.23;;;24.30;94.70;;;;;;5003037;28;20499;-37
2022/09/07 11:23:18;;;;;;;4.20;1.90;;;24.20;93.90;;;;;;5005042;28;20064;-38
2022/09/07 11:26:21;;;;;;;3.60;1.85;;;24.10;93.70;;;;;;5008044;28;20041;-38
2022/09/07 11:29:19;;;;;;;3.80;2.13;;;23.90;93.60;;;;;;5007043;28;20034;-38
2022/09/07 11:31:53;;;;;;;4.22;2.10;;;23.80;93.60;;;;;;5010155;28;20046;-39
2022/09/07 11:34:30;;;;;;;3.10;1.30;;;23.60;94.40;;;;;;5009016;28;20057;-38
2022/09/07 11:37:04;;;;;;;3.25;1.80;;;23.70;94.50;;;;;;5010172;28;20034;-38
2022/09/07 11:39:41;;;;;;;1.70;1.20;;;23.90;94.30;;;;;;5008782;28;20503;-39
2022/09/07 11:42:13;;;;;;;2.80;1.52;;;23.90;93.80;;;;;;5004323;28;20442;-39
2022/09/07 11:44:50;;;;;;;2.70;1.35;;;24.00;93.30;;;;;;5008319;28;20038;-39
2022/09/07 11:47:37;;;;;;;2.47;1.25;;;24.20;92.70;;;;;;5003145;28;20026;-39
2022/09/07 11:50:04;;;;;;;1.52;0.80;;;24.20;91.80;;;;;;5004840;28;20605;-38
2022/09/07 11:52:43;;;;;;;3.55;1.75;;;24.30;92.30;;;;;;5004921;28;20053;-38
2022/09/07 11:55:20;;;;;;;2.42;1.45;;;24.20;91.70;;;;;;5008495;28;20495;-39
2022/09/07 11:57:48;;;;;;;2.38;1.42;;;24.10;92.40;;;;;;5004868;28;20384;-38
2022/09/07 12:00:19;;;;;;;2.70;1.58;;;24.20;92.60;;;;;;5005961;28;20562;-38
2022/09/07 12:03:04;;;;;;;3.65;1.25;;;24.40;91.70;;;;;;5006658;28;20299;-38
2022/09/07 12:05:46;;;;;;;1.77;0.80;;;24.60;90.70;;;;;;5005621;28;20077;-39
2022/09/07 12:08:30;;;;;;;2.22;1.08;;;24.60;90.90;;;;;;5009038;28;20056;-39
2022/09/07 12:11:21;;;;;;;2.50;1.30;;;24.60;91.00;;;;;;5003654;28;20076;-37
2022/09/07 12:14:17;;;;;;;3.33;1.40;;;24.50;91.10;;;;;;5004294;28;20060;-40
2022/09/07 12:17:04;;;;;;;3.70;1.40;;;24.80;90.40;;;;;;5006375;28;20566;-44
2022/09/07 12:19:29;;;;;;;2.72;1.80;;;25.10;89.90;;;;;;5005419;28;20402;-42
2022/09/07 12:21:58;;;;;;;3.88;1.67;;;25.30;88.50;;;;;;5010525;28;20036;-39
2022/09/07 12:24:52;;;;;;;3.50;1.40;;;25.50;87.10;;;;;;5006940;28;20051;-39
2022/09/07 12:27:21;;;;;;;1.80;1.35;;;25.80;85.40;;;;;;4989794;28;20045;-40
2022/09/07 12:29:48;;;;;;;2.35;1.17;;;26.00;85.50;;;;;;5004159;28;20574;-39
2022/09/07 12:32:45;;;;;;;3.15;1.50;;;26.20;83.80;;;;;;5008531;28;20491;-40
2022/09/07 12:35:29;;;;;;;3.33;1.80;;;26.50;81.30;;;;;;5005808;28;20038;-38
2022/09/07 12:37:56;;;;;;;4.15;1.80;;;26.60;80.00;;;;;;5007715;28;20491;-39
2022/09/07 12:40:27;;;;;;;2.88;1.88;;;26.70;80.30;;;;;;5006141;28;20096;-38
2022/09/07 12:43:44;;;;;;;2.97;1.55;;;26.80;79.10;;;;;;5004926;28;20572;-39
2022/09/07 12:46:28;;;;;;;2.20;1.27;;;26.70;77.60;;;;;;5008347;28;20514;-39
2022/09/07 12:49:15;;;;;;;0.88;0.70;;;26.40;78.10;;;;;;5007153;28;20044;-39
2022/09/07 12:51:48;;;;;;;2.80;1.58;;;26.10;80.50;;;;;;5000504;28;20056;-40
2022/09/07 12:54:34;;;;;;;1.40;1.00;;;25.90;82.20;;;;;;5002190;28;20048;-39
2022/09/07 12:57:22;;;;;;;4.15;2.00;;;25.70;81.80;;;;;;5007514;28;20046;-39
2022/09/07 13:00:04;;;;;;;4.03;2.20;;;26.00;81.70;;;;;;5006008;28;20474;-39
2022/09/07 13:02:41;;;;;;;3.97;2.88;;;26.70;78.30;;;;;;5006861;28;20513;-39
2022/09/07 13:05:34;;;;;;;7.95;2.25;;;27.50;74.10;;;;;;5005741;28;21007;-38
2022/09/07 13:08:37;;;;;;;4.80;2.20;;;28.20;71.40;;;;;;5005692;28;20120;-39
2022/09/07 13:11:28;;;;;;;2.25;1.60;;;28.90;67.60;;;;;;4998842;28;20141;-39
2022/09/07 13:14:02;;;;;;;2.83;1.90;;;29.60;60.50;;;;;;5002267;28;20502;-39
2022/09/07 13:16:34;;;;;;;3.75;1.77;;;29.90;56.50;;;;;;5002030;28;20103;-39
2022/09/07 13:19:02;;;;;;;2.97;2.08;;;30.30;53.90;;;;;;5000798;28;20526;-39
2022/09/07 13:21:28;;;;;;;2.53;1.60;;;30.70;50.90;;;;;;5001592;28;20045;-40